Time;durP1;ratioP1;P1;durP2;ratioP2;P2;SDS_P1;SDS_P2;PMS_P1;PMS_P2;Temp;Humidity;BMP_temperature;BMP_pressure;BME280_temperature;BME280_humidity;BME280_pressure;Samples;Min_cycle;Max_cycle;Signal;HPM_P1;HPM_P2
2023/09/20 00:01:02;;;;;;;6.93;2.80;;;;;;;;;;5086030;28;20044;-59
2023/09/20 00:03:28;;;;;;;4.80;2.60;;;;;;;;;;5085326;28;20048;-59
2023/09/20 00:05:54;;;;;;;7.38;2.92;;;;;;;;;;5102533;28;20276;-59
2023/09/20 00:08:20;;;;;;;6.55;2.80;;;;;;;;;;5103984;28;20054;-59
2023/09/20 00:10:46;;;;;;;7.82;3.25;;;;;;;;;;5086823;28;20036;-59
2023/09/20 00:13:13;;;;;;;6.38;3.13;;;;;;;;;;5103686;28;20043;-59
2023/09/20 00:15:43;;;;;;;5.72;2.70;;;;;;;;;;5104979;28;20447;-59
2023/09/20 00:18:09;;;;;;;6.93;2.70;;;;;;;;;;5086382;28;20040;-60
2023/09/20 00:20:36;;;;;;;9.45;2.97;;;;;;;;;;5084810;28;20042;-60
2023/09/20 00:23:04;;;;;;;7.47;2.85;;;;;;;;;;5097631;28;20047;-59
2023/09/20 00:25:30;;;;;;;8.63;3.00;;;;;;;;;;5103923;28;20443;-59
2023/09/20 00:27:56;;;;;;;21.92;3.47;;;;;;;;;;5086649;28;20044;-59
2023/09/20 00:30:22;;;;;;;9.75;3.58;;;;;;;;;;5102880;28;20459;-59
2023/09/20 00:32:49;;;;;;;9.10;3.30;;;;;;;;;;5085408;28;20044;-59
2023/09/20 00:35:19;;;;;;;6.97;3.10;;;;;;;;;;5101465;28;20054;-59
2023/09/20 00:37:48;;;;;;;8.40;3.00;;;;;;;;;;5088069;28;20048;-59
2023/09/20 00:40:16;;;;;;;10.02;2.95;;;;;;;;;;5089426;28;20287;-59
2023/09/20 00:42:45;;;;;;;9.48;2.90;;;;;;;;;;5104278;28;20042;-59
2023/09/20 00:45:15;;;;;;;6.78;2.88;;;;;;;;;;5099398;28;20058;-59
2023/09/20 00:47:43;;;;;;;;;;;;;;;;;;5102408;28;20047;-59
2023/09/20 00:50:11;;;;;;;6.57;2.70;;;;;;;;;;5106147;28;19911;-59
2023/09/20 00:52:42;;;;;;;8.32;2.70;;;;;;;;;;5105382;28;20031;-59
2023/09/20 00:55:15;;;;;;;5.80;2.75;;;;;;;;;;5103367;28;20028;-59
2023/09/20 00:57:46;;;;;;;8.65;3.75;;;;;;;;;;5103083;28;20027;-59
2023/09/20 01:00:23;;;;;;;9.38;3.25;;;;;;;;;;5102132;28;21479;-59
2023/09/20 01:02:51;;;;;;;8.32;2.92;;;;;;;;;;5085650;28;20474;-59
2023/09/20 01:05:25;;;;;;;8.57;3.38;;;;;;;;;;5083831;28;20047;-58
2023/09/20 01:07:56;;;;;;;8.15;3.28;;;;;;;;;;5105414;28;20039;-57
2023/09/20 01:10:24;;;;;;;7.50;2.97;;;;;;;;;;5087840;28;20024;-58
2023/09/20 01:12:53;;;;;;;7.55;2.75;;;;;;;;;;5082468;28;20051;-59
2023/09/20 01:15:20;;;;;;;8.13;2.70;;;;;;;;;;5096969;28;20042;-59
2023/09/20 01:17:48;;;;;;;8.30;2.90;;;;;;;;;;5086936;28;20486;-58
2023/09/20 01:20:18;;;;;;;11.02;3.08;;;;;;;;;;5099847;28;20422;-58
2023/09/20 01:22:47;;;;;;;7.65;3.10;;;;;;;;;;5085216;28;20027;-58
2023/09/20 01:25:24;;;;;;;;;;;;;;;;;;5082589;28;20043;-58
2023/09/20 01:27:55;;;;;;;5.82;3.10;;;;;;;;;;5100631;28;19919;-58
2023/09/20 01:30:26;;;;;;;7.10;2.58;;;;;;;;;;5096482;28;20062;-59
2023/09/20 01:32:57;;;;;;;7.20;2.67;;;;;;;;;;5099094;28;20047;-59
2023/09/20 01:35:27;;;;;;;7.22;2.70;;;;;;;;;;5102970;28;20039;-59
2023/09/20 01:37:55;;;;;;;6.28;2.88;;;;;;;;;;5087327;28;20043;-59
2023/09/20 01:40:26;;;;;;;10.07;2.92;;;;;;;;;;5102618;28;20036;-58
2023/09/20 01:42:53;;;;;;;4.88;2.38;;;;;;;;;;5099773;28;20687;-58
2023/09/20 01:45:20;;;;;;;6.43;2.65;;;;;;;;;;5082448;28;20368;-58
2023/09/20 01:47:54;;;;;;;6.88;2.50;;;;;;;;;;5102913;28;20038;-58
2023/09/20 01:50:24;;;;;;;7.85;2.70;;;;;;;;;;5104222;28;20476;-59
2023/09/20 01:52:50;;;;;;;5.88;2.90;;;;;;;;;;5084388;28;20048;-60
2023/09/20 01:55:18;;;;;;;10.00;2.70;;;;;;;;;;5084994;28;20028;-59
2023/09/20 01:57:45;;;;;;;6.70;2.25;;;;;;;;;;5104757;28;20027;-59
2023/09/20 02:00:22;;;;;;;5.20;2.60;;;;;;;;;;5084446;28;20042;-59
2023/09/20 02:02:54;;;;;;;5.33;2.20;;;;;;;;;;5102804;28;20031;-59
2023/09/20 02:05:23;;;;;;;8.32;2.38;;;;;;;;;;5104305;28;20043;-59
2023/09/20 02:07:52;;;;;;;5.20;2.33;;;;;;;;;;5104733;28;20027;-59
2023/09/20 02:10:21;;;;;;;3.70;2.20;;;;;;;;;;5086133;28;20047;-59
2023/09/20 02:12:51;;;;;;;5.82;2.20;;;;;;;;;;5086615;28;20035;-59
2023/09/20 02:15:18;;;;;;;4.65;1.98;;;;;;;;;;5085084;28;20036;-59
2023/09/20 02:17:45;;;;;;;4.28;2.17;;;;;;;;;;5104676;28;20054;-59
2023/09/20 02:20:13;;;;;;;3.92;2.80;;;;;;;;;;5102993;28;20040;-59
2023/09/20 02:22:40;;;;;;;6.00;2.10;;;;;;;;;;5098607;28;20028;-59
2023/09/20 02:25:11;;;;;;;5.85;2.08;;;;;;;;;;5095969;28;20059;-59
2023/09/20 02:27:42;;;;;;;3.28;1.90;;;;;;;;;;5081921;28;20397;-59
2023/09/20 02:30:12;;;;;;;4.43;1.60;;;;;;;;;;5101385;28;20050;-59
2023/09/20 02:32:38;;;;;;;4.45;1.90;;;;;;;;;;5067678;28;20032;-58
2023/09/20 02:35:06;;;;;;;4.68;1.70;;;;;;;;;;5103221;28;20521;-59
2023/09/20 02:37:34;;;;;;;3.65;1.85;;;;;;;;;;5105399;28;20046;-59
2023/09/20 02:40:07;;;;;;;3.80;1.52;;;;;;;;;;5102080;28;20032;-59
2023/09/20 02:42:48;;;;;;;4.10;1.40;;;;;;;;;;5101084;28;20050;-59
2023/09/20 02:45:22;;;;;;;3.03;1.65;;;;;;;;;;5078799;28;20410;-60
2023/09/20 02:47:49;;;;;;;3.42;1.70;;;;;;;;;;5084517;28;20036;-59
2023/09/20 02:50:18;;;;;;;2.67;1.65;;;;;;;;;;5084010;28;20047;-59
2023/09/20 02:52:47;;;;;;;2.53;1.70;;;;;;;;;;5085833;28;20044;-59
2023/09/20 02:55:15;;;;;;;2.80;2.10;;;;;;;;;;5101467;28;20040;-59
2023/09/20 02:57:42;;;;;;;3.03;1.60;;;;;;;;;;5098924;28;20522;-58
2023/09/20 03:00:15;;;;;;;2.85;1.50;;;;;;;;;;5084362;28;20408;-59
2023/09/20 03:02:52;;;;;;;3.20;1.65;;;;;;;;;;5067566;28;20398;-59
2023/09/20 03:05:31;;;;;;;3.65;1.73;;;;;;;;;;5081090;28;20028;-59
2023/09/20 03:07:57;;;;;;;3.25;1.35;;;;;;;;;;5097072;28;20055;-59
2023/09/20 03:10:25;;;;;;;2.20;1.50;;;;;;;;;;5085477;28;20430;-59
2023/09/20 03:12:54;;;;;;;2.22;1.40;;;;;;;;;;5083223;28;20028;-60
2023/09/20 03:15:22;;;;;;;2.43;1.50;;;;;;;;;;5086108;28;20027;-59
2023/09/20 03:17:50;;;;;;;2.72;1.50;;;;;;;;;;5088528;28;20043;-59
2023/09/20 03:20:23;;;;;;;1.90;1.40;;;;;;;;;;5083296;28;20043;-59
2023/09/20 03:23:13;;;;;;;1.67;1.35;;;;;;;;;;5093667;28;20032;-59
2023/09/20 03:25:40;;;;;;;1.67;1.35;;;;;;;;;;5091065;28;20044;-59
2023/09/20 03:28:15;;;;;;;2.75;1.50;;;;;;;;;;5088781;28;20035;-59
2023/09/20 03:30:42;;;;;;;3.78;1.40;;;;;;;;;;5090397;28;20035;-59
2023/09/20 03:33:08;;;;;;;4.90;1.58;;;;;;;;;;5088195;28;20039;-60
2023/09/20 03:35:35;;;;;;;2.53;1.70;;;;;;;;;;5087762;28;20058;-59
2023/09/20 03:38:03;;;;;;;1.80;1.35;;;;;;;;;;5068476;28;20405;-60
2023/09/20 03:40:30;;;;;;;2.40;1.35;;;;;;;;;;5088247;28;20043;-58
2023/09/20 03:43:02;;;;;;;2.33;1.55;;;;;;;;;;5074348;28;20035;-59
2023/09/20 03:45:29;;;;;;;2.97;1.38;;;;;;;;;;5086171;28;20043;-59
2023/09/20 03:47:57;;;;;;;4.35;1.33;;;;;;;;;;5095002;28;20079;-59
2023/09/20 03:50:24;;;;;;;3.10;1.25;;;;;;;;;;5084457;28;20518;-60
2023/09/20 03:52:51;;;;;;;1.65;1.30;;;;;;;;;;5089510;28;20178;-60
2023/09/20 03:55:19;;;;;;;2.08;1.23;;;;;;;;;;5086631;28;20036;-59
2023/09/20 03:57:46;;;;;;;1.50;1.00;;;;;;;;;;5089565;28;20051;-59
2023/09/20 04:00:16;;;;;;;5.25;2.00;;;;;;;;;;5089882;28;20050;-59
2023/09/20 04:02:47;;;;;;;9.57;3.60;;;;;;;;;;5084937;28;20638;-60
2023/09/20 04:05:15;;;;;;;5.10;2.33;;;;;;;;;;5084756;28;20418;-59
2023/09/20 04:07:44;;;;;;;3.00;1.52;;;;;;;;;;5103478;28;20051;-60
2023/09/20 04:10:11;;;;;;;2.05;1.40;;;;;;;;;;5104410;28;20044;-59
2023/09/20 04:12:38;;;;;;;3.80;1.77;;;;;;;;;;5087373;28;20499;-59
2023/09/20 04:15:05;;;;;;;2.55;1.60;;;;;;;;;;5101618;28;20027;-60
2023/09/20 04:17:38;;;;;;;2.58;1.30;;;;;;;;;;5103955;28;20462;-59
2023/09/20 04:20:07;;;;;;;1.67;1.48;;;;;;;;;;5082368;28;20766;-61
2023/09/20 04:22:36;;;;;;;2.50;1.47;;;;;;;;;;5087173;28;20482;-58
2023/09/20 04:25:05;;;;;;;2.63;1.40;;;;;;;;;;5086552;28;20288;-60
2023/09/20 04:27:32;;;;;;;2.20;1.33;;;;;;;;;;5091175;28;20036;-59
2023/09/20 04:29:58;;;;;;;2.72;1.58;;;;;;;;;;5087059;28;20035;-57
2023/09/20 04:32:25;;;;;;;4.68;2.40;;;;;;;;;;5086523;28;20050;-59
2023/09/20 04:34:53;;;;;;;3.25;1.85;;;;;;;;;;5088802;28;20744;-59
2023/09/20 04:37:22;;;;;;;2.30;1.50;;;;;;;;;;5082664;28;20058;-59
2023/09/20 04:39:49;;;;;;;5.73;2.80;;;;;;;;;;5085185;28;20035;-59
2023/09/20 04:42:16;;;;;;;4.00;2.55;;;;;;;;;;5085077;28;20032;-58
2023/09/20 04:44:42;;;;;;;5.75;3.22;;;;;;;;;;5087061;28;20027;-60
2023/09/20 04:47:14;;;;;;;2.28;1.77;;;;;;;;;;5087082;28;20035;-59
2023/09/20 04:49:40;;;;;;;2.65;1.67;;;;;;;;;;5068851;28;20414;-59
2023/09/20 04:52:10;;;;;;;3.38;1.90;;;;;;;;;;5086183;28;20043;-59
2023/09/20 04:54:37;;;;;;;3.08;1.70;;;;;;;;;;5093646;28;20047;-59
2023/09/20 04:57:06;;;;;;;3.13;1.70;;;;;;;;;;5086547;28;20040;-59
2023/09/20 04:59:32;;;;;;;2.83;1.75;;;;;;;;;;5086470;28;20503;-59
2023/09/20 05:01:59;;;;;;;3.25;1.60;;;;;;;;;;5104713;28;20075;-58
2023/09/20 05:04:27;;;;;;;1.63;1.38;;;;;;;;;;5086452;28;20038;-58
2023/09/20 05:06:53;;;;;;;3.78;2.08;;;;;;;;;;5085495;28;20035;-60
2023/09/20 05:09:20;;;;;;;1.85;1.60;;;;;;;;;;5064256;28;22899;-58
2023/09/20 05:11:49;;;;;;;2.38;1.40;;;;;;;;;;5087840;27;20051;-58
2023/09/20 05:14:15;;;;;;;3.35;1.95;;;;;;;;;;5091967;28;20036;-57
2023/09/20 05:16:42;;;;;;;4.72;1.80;;;;;;;;;;5088355;28;20036;-58
2023/09/20 05:19:08;;;;;;;2.90;1.50;;;;;;;;;;5086187;28;20043;-58
2023/09/20 05:21:35;;;;;;;2.42;1.45;;;;;;;;;;5082645;28;20035;-58
2023/09/20 05:24:01;;;;;;;4.45;1.60;;;;;;;;;;5081507;28;20036;-57
2023/09/20 05:26:28;;;;;;;3.33;1.60;;;;;;;;;;5080327;28;20027;-58
2023/09/20 05:28:54;;;;;;;2.50;1.55;;;;;;;;;;5084842;28;20050;-58
2023/09/20 05:31:22;;;;;;;5.20;1.88;;;;;;;;;;5086230;28;20036;-59
2023/09/20 05:33:49;;;;;;;2.92;1.50;;;;;;;;;;5101636;28;20035;-58
2023/09/20 05:36:15;;;;;;;2.42;1.30;;;;;;;;;;5103176;28;20039;-58
2023/09/20 05:38:42;;;;;;;3.20;1.33;;;;;;;;;;5097739;28;20513;-59
2023/09/20 05:41:10;;;;;;;3.72;2.33;;;;;;;;;;5099924;28;20490;-59
2023/09/20 05:43:39;;;;;;;6.40;2.28;;;;;;;;;;5097338;28;20398;-59
2023/09/20 05:46:07;;;;;;;3.88;2.00;;;;;;;;;;5104753;28;20039;-59
2023/09/20 05:48:34;;;;;;;3.15;1.45;;;;;;;;;;5105290;28;20030;-59
2023/09/20 05:51:00;;;;;;;3.13;1.38;;;;;;;;;;5103035;28;20407;-58
2023/09/20 05:53:28;;;;;;;3.03;1.58;;;;;;;;;;5104239;28;20502;-59
2023/09/20 05:55:54;;;;;;;2.72;1.67;;;;;;;;;;5105203;28;20036;-59
2023/09/20 05:58:20;;;;;;;3.63;1.60;;;;;;;;;;5103291;28;20039;-58
2023/09/20 06:00:46;;;;;;;2.80;2.15;;;;;;;;;;5100622;28;20052;-58
2023/09/20 06:03:12;;;;;;;3.08;1.75;;;;;;;;;;5101553;28;20056;-58
2023/09/20 06:05:39;;;;;;;3.72;2.10;;;;;;;;;;5103279;28;20031;-58
2023/09/20 06:08:08;;;;;;;2.38;1.75;;;;;;;;;;5100678;28;20032;-58
2023/09/20 06:10:35;;;;;;;2.42;1.58;;;;;;;;;;5098503;28;20430;-58
2023/09/20 06:13:01;;;;;;;2.95;1.63;;;;;;;;;;5098501;28;20055;-58
2023/09/20 06:15:28;;;;;;;2.50;1.90;;;;;;;;;;5101717;28;20051;-58
2023/09/20 06:17:54;;;;;;;2.78;1.63;;;;;;;;;;5098143;28;20027;-58
2023/09/20 06:20:21;;;;;;;3.70;1.77;;;;;;;;;;5097682;28;20048;-58
2023/09/20 06:22:51;;;;;;;3.72;2.03;;;;;;;;;;5094478;28;20434;-58
2023/09/20 06:25:21;;;;;;;3.75;2.50;;;;;;;;;;5099300;28;20035;-57
2023/09/20 06:27:53;;;;;;;2.35;1.85;;;;;;;;;;5101773;28;20032;-58
2023/09/20 06:30:24;;;;;;;3.15;1.65;;;;;;;;;;5101559;28;20048;-58
2023/09/20 06:32:50;;;;;;;5.43;1.90;;;;;;;;;;5102205;28;20039;-58
2023/09/20 06:35:20;;;;;;;2.90;1.42;;;;;;;;;;5099485;28;20047;-59
2023/09/20 06:37:47;;;;;;;3.28;1.85;;;;;;;;;;5079940;28;20039;-58
2023/09/20 06:40:57;;;;;;;3.38;1.45;;;;;;;;;;5102086;28;20048;-58
2023/09/20 06:43:03;;;;;;;2.75;1.63;;;;;;;;;;5099332;28;20040;-58
2023/09/20 06:45:30;;;;;;;3.90;1.70;;;;;;;;;;5089561;28;20062;-58
2023/09/20 06:47:56;;;;;;;3.75;1.60;;;;;;;;;;5105828;28;20048;-58
2023/09/20 06:50:23;;;;;;;5.05;1.63;;;;;;;;;;5108327;28;20035;-58
2023/09/20 06:52:51;;;;;;;2.92;1.50;;;;;;;;;;5089983;28;20052;-58
2023/09/20 06:55:19;;;;;;;3.40;1.52;;;;;;;;;;5105270;28;20062;-58
2023/09/20 06:57:47;;;;;;;3.03;1.38;;;;;;;;;;5105636;28;20051;-58
2023/09/20 07:00:25;;;;;;;5.97;1.60;;;;;;;;;;5088311;28;20487;-58
2023/09/20 07:02:55;;;;;;;2.15;1.50;;;;;;;;;;5107006;28;20038;-58
2023/09/20 07:05:24;;;;;;;3.22;1.63;;;;;;;;;;5104946;28;20030;-58
2023/09/20 07:07:51;;;;;;;3.55;1.75;;;;;;;;;;5106306;28;20645;-58
2023/09/20 07:10:17;;;;;;;2.95;1.70;;;;;;;;;;5107767;27;20557;-58
2023/09/20 07:12:44;;;;;;;3.00;1.65;;;;;;;;;;5099679;28;20422;-58
2023/09/20 07:15:15;;;;;;;2.92;1.50;;;;;;;;;;5096103;28;20036;-58
2023/09/20 07:17:42;;;;;;;3.42;1.67;;;;;;;;;;5099563;28;20058;-58
2023/09/20 07:20:20;;;;;;;3.88;1.40;;;;;;;;;;5079485;28;20048;-58
2023/09/20 07:22:47;;;;;;;2.35;1.70;;;;;;;;;;5101966;28;20043;-58
2023/09/20 07:25:19;;;;;;;2.65;1.60;;;;;;;;;;5076537;28;20495;-59
2023/09/20 07:27:48;;;;;;;1.98;1.40;;;;;;;;;;5103314;28;20043;-59
2023/09/20 07:30:22;;;;;;;4.70;1.80;;;;;;;;;;5100292;28;20035;-59
2023/09/20 07:32:50;;;;;;;4.05;1.33;;;;;;;;;;5100582;28;20048;-59
2023/09/20 07:35:25;;;;;;;7.70;2.00;;;;;;;;;;5104993;28;20047;-57
2023/09/20 07:37:56;;;;;;;3.50;1.13;;;;;;;;;;5103128;28;20048;-60
2023/09/20 07:40:33;;;;;;;2.70;1.50;;;;;;;;;;5101653;28;20518;-59
2023/09/20 07:43:04;;;;;;;3.25;1.60;;;;;;;;;;5105383;28;20036;-59
2023/09/20 07:45:38;;;;;;;3.85;1.55;;;;;;;;;;5106374;28;20051;-59
2023/09/20 07:48:12;;;;;;;3.17;1.60;;;;;;;;;;5108018;28;20027;-59
2023/09/20 07:50:40;;;;;;;2.78;1.65;;;;;;;;;;5105884;28;20046;-59
2023/09/20 07:53:10;;;;;;;2.70;1.67;;;;;;;;;;5099781;28;20054;-59
2023/09/20 07:55:43;;;;;;;3.78;1.63;;;;;;;;;;5101147;28;20050;-59
2023/09/20 07:58:10;;;;;;;3.35;1.50;;;;;;;;;;5102512;28;20044;-59
2023/09/20 08:00:44;;;;;;;2.58;1.40;;;;;;;;;;5104551;28;20023;-59
2023/09/20 08:03:11;;;;;;;2.38;1.35;;;;;;;;;;5105038;28;20051;-59
2023/09/20 08:05:38;;;;;;;2.88;1.60;;;;;;;;;;5101750;28;20514;-59
2023/09/20 08:08:10;;;;;;;3.60;1.40;;;;;;;;;;5102625;28;20052;-59
2023/09/20 08:10:38;;;;;;;1.50;1.30;;;;;;;;;;5089525;28;20442;-60
2023/09/20 08:13:05;;;;;;;3.22;1.58;;;;;;;;;;5096222;28;20040;-59
2023/09/20 08:15:36;;;;;;;4.20;1.42;;;;;;;;;;5104541;28;20039;-59
2023/09/20 08:20:48;;;;;;;3.25;1.38;;;;;;;;;;5094900;28;20032;-58
2023/09/20 09:01:48;;;;;;;2.38;1.30;;;;;;;;;;5102447;28;20055;-58
2023/09/20 09:04:18;;;;;;;1.67;1.08;;;;;;;;;;5098096;28;20039;-58
2023/09/20 09:06:45;;;;;;;1.95;1.40;;;;;;;;;;5096850;28;20039;-58
2023/09/20 09:09:12;;;;;;;2.30;1.10;;;;;;;;;;5100174;28;20048;-58
2023/09/20 09:11:38;;;;;;;1.85;1.00;;;;;;;;;;5100263;28;20482;-58
2023/09/20 09:14:05;;;;;;;2.83;1.30;;;;;;;;;;5100638;28;20410;-58
2023/09/20 09:16:33;;;;;;;2.25;1.23;;;;;;;;;;5093124;28;20039;-58
2023/09/20 09:19:00;;;;;;;2.22;1.20;;;;;;;;;;5098465;28;20497;-59
2023/09/20 09:21:27;;;;;;;3.72;1.27;;;;;;;;;;5092914;28;20043;-58
2023/09/20 09:23:53;;;;;;;1.73;1.30;;;;;;;;;;5101289;28;20633;-58
2023/09/20 09:26:19;;;;;;;1.70;1.15;;;;;;;;;;5101592;28;20047;-59
2023/09/20 09:28:45;;;;;;;2.05;1.30;;;;;;;;;;5099786;28;20044;-58
2023/09/20 09:31:13;;;;;;;3.35;1.55;;;;;;;;;;5098872;28;20050;-58
2023/09/20 09:33:39;;;;;;;2.20;1.10;;;;;;;;;;5100763;28;20043;-58
2023/09/20 09:36:07;;;;;;;1.88;1.30;;;;;;;;;;5100821;28;20069;-58
2023/09/20 09:38:34;;;;;;;3.20;1.30;;;;;;;;;;5084337;28;20125;-58
2023/09/20 09:41:03;;;;;;;1.52;1.08;;;;;;;;;;5102650;28;20044;-58
2023/09/20 09:43:30;;;;;;;1.83;1.23;;;;;;;;;;5082523;28;20036;-58
2023/09/20 09:46:17;;;;;;;2.03;1.23;;;;;;;;;;5102937;28;20525;-57
2023/09/20 09:48:43;;;;;;;2.30;1.08;;;;;;;;;;5100300;28;20047;-57
2023/09/20 09:51:10;;;;;;;2.03;1.15;;;;;;;;;;5101534;28;20042;-57
2023/09/20 09:53:37;;;;;;;2.40;1.10;;;;;;;;;;5102155;28;20482;-57
2023/09/20 09:56:04;;;;;;;2.65;1.20;;;;;;;;;;5102383;28;20406;-58
2023/09/20 09:58:31;;;;;;;1.73;1.00;;;;;;;;;;5083438;28;20066;-58
2023/09/20 10:00:57;;;;;;;3.72;1.20;;;;;;;;;;5097933;28;20056;-58
2023/09/20 10:03:32;;;;;;;2.22;1.10;;;;;;;;;;5100532;28;20039;-58
2023/09/20 10:06:25;;;;;;;2.47;1.30;;;;;;;;;;5081561;28;20556;-57
2023/09/20 10:08:55;;;;;;;2.83;1.23;;;;;;;;;;5096725;28;20039;-58
2023/09/20 10:11:23;;;;;;;2.40;1.17;;;;;;;;;;5094335;28;20541;-58
2023/09/20 10:13:52;;;;;;;2.50;0.90;;;;;;;;;;5098552;28;20028;-58
2023/09/20 10:16:19;;;;;;;1.65;1.00;;;;;;;;;;5102203;28;20059;-57
2023/09/20 10:18:54;;;;;;;1.42;1.10;;;;;;;;;;5095094;28;20391;-58
2023/09/20 10:21:26;;;;;;;1.00;0.90;;;;;;;;;;5102273;28;20051;-59
2023/09/20 10:23:57;;;;;;;1.85;1.00;;;;;;;;;;5101626;28;20031;-58
2023/09/20 10:26:24;;;;;;;1.67;1.00;;;;;;;;;;5105045;28;20039;-58
2023/09/20 10:28:57;;;;;;;1.55;0.95;;;;;;;;;;5108225;28;20047;-58
2023/09/20 10:31:23;;;;;;;1.40;0.90;;;;;;;;;;5106613;28;20039;-58
2023/09/20 10:33:51;;;;;;;1.00;0.85;;;;;;;;;;5086932;28;20419;-58
2023/09/20 10:36:28;;;;;;;1.67;0.90;;;;;;;;;;5105236;28;20087;-58
2023/09/20 10:39:17;;;;;;;1.17;1.08;;;;;;;;;;5110508;28;20043;-58
2023/09/20 10:41:48;;;;;;;3.22;2.30;;;;;;;;;;5105461;28;20035;-58
2023/09/20 10:44:28;;;;;;;2.78;1.30;;;;;;;;;;5102712;28;20028;-59
2023/09/20 10:46:55;;;;;;;2.13;1.00;;;;;;;;;;5106454;28;20391;-58
2023/09/20 10:49:41;;;;;;;2.30;1.00;;;;;;;;;;5105848;28;20038;-58
2023/09/20 10:52:08;;;;;;;5.50;1.10;;;;;;;;;;5103993;28;20051;-59
2023/09/20 10:54:36;;;;;;;1.30;1.10;;;;;;;;;;5103084;28;20046;-58
2023/09/20 10:57:05;;;;;;;1.55;0.90;;;;;;;;;;5102222;28;20055;-59
2023/09/20 10:59:32;;;;;;;1.45;0.90;;;;;;;;;;5100898;28;20043;-59
2023/09/20 11:02:12;;;;;;;3.53;1.20;;;;;;;;;;5100148;28;20036;-59
2023/09/20 11:04:40;;;;;;;1.48;1.20;;;;;;;;;;5097037;28;20043;-59
2023/09/20 11:07:07;;;;;;;1.30;0.90;;;;;;;;;;5101371;28;20044;-59
2023/09/20 11:09:33;;;;;;;1.55;1.05;;;;;;;;;;5099379;28;20058;-59
2023/09/20 11:12:06;;;;;;;2.22;0.93;;;;;;;;;;5106849;28;20043;-58
2023/09/20 11:14:34;;;;;;;3.17;0.90;;;;;;;;;;5109615;28;20027;-58
2023/09/20 11:17:02;;;;;;;2.05;1.00;;;;;;;;;;5109438;28;20444;-58
2023/09/20 11:19:28;;;;;;;2.13;0.98;;;;;;;;;;5103961;28;20051;-57
2023/09/20 11:21:56;;;;;;;2.15;1.20;;;;;;;;;;5105235;28;20040;-58
2023/09/20 11:24:25;;;;;;;2.88;1.00;;;;;;;;;;5107131;28;20039;-57
2023/09/20 11:26:55;;;;;;;1.85;0.90;;;;;;;;;;5106399;28;20031;-57
2023/09/20 11:29:22;;;;;;;1.27;0.80;;;;;;;;;;5104222;28;20043;-57
2023/09/20 11:31:48;;;;;;;1.73;1.10;;;;;;;;;;5101882;28;20435;-57
2023/09/20 11:34:17;;;;;;;1.60;0.90;;;;;;;;;;5088527;28;20031;-57
2023/09/20 11:36:44;;;;;;;3.67;1.08;;;;;;;;;;5104924;28;20083;-57
2023/09/20 11:39:22;;;;;;;1.02;0.90;;;;;;;;;;5104418;28;20040;-57
2023/09/20 11:41:49;;;;;;;;;;;;;;;;;;5101013;28;20047;-58
2023/09/20 11:44:20;;;;;;;1.45;0.98;;;;;;;;;;5105463;28;20306;-58
2023/09/20 11:46:57;;;;;;;2.85;1.33;;;;;;;;;;5101505;28;20502;-57
2023/09/20 11:49:24;;;;;;;5.15;1.20;;;;;;;;;;5087740;28;20043;-58
2023/09/20 11:51:54;;;;;;;4.45;1.60;;;;;;;;;;5104885;28;20043;-58
2023/09/20 11:54:34;;;;;;;7.60;1.17;;;;;;;;;;5101703;28;20043;-57
2023/09/20 11:57:02;;;;;;;2.65;1.17;;;;;;;;;;5105346;28;20418;-57
2023/09/20 11:59:29;;;;;;;1.83;1.17;;;;;;;;;;5098495;28;20056;-56
2023/09/20 12:01:55;;;;;;;1.75;1.17;;;;;;;;;;5101813;28;20048;-57
2023/09/20 12:04:21;;;;;;;1.40;1.10;;;;;;;;;;5103871;28;20028;-57
2023/09/20 12:06:47;;;;;;;2.40;1.40;;;;;;;;;;5105022;28;20039;-57
2023/09/20 12:09:13;;;;;;;1.83;1.10;;;;;;;;;;5103795;28;20062;-56
2023/09/20 12:11:41;;;;;;;1.70;1.25;;;;;;;;;;5106287;28;20054;-57
2023/09/20 12:14:12;;;;;;;3.05;1.33;;;;;;;;;;5094566;28;20044;-57
2023/09/20 12:16:38;;;;;;;3.72;1.08;;;;;;;;;;5100360;28;20532;-57
2023/09/20 12:19:04;;;;;;;1.83;1.27;;;;;;;;;;5092757;28;20040;-58
2023/09/20 12:21:31;;;;;;;2.38;1.20;;;;;;;;;;5102243;28;20035;-56
2023/09/20 12:23:58;;;;;;;2.28;1.23;;;;;;;;;;5100553;28;20027;-56
2023/09/20 12:26:25;;;;;;;2.45;1.30;;;;;;;;;;5101813;28;20394;-56
2023/09/20 12:28:51;;;;;;;3.00;1.17;;;;;;;;;;5105666;28;20392;-56
2023/09/20 12:31:23;;;;;;;2.58;1.27;;;;;;;;;;5103330;28;20031;-56
2023/09/20 12:33:51;;;;;;;3.90;1.30;;;;;;;;;;5083702;28;20040;-55
2023/09/20 12:36:17;;;;;;;2.23;1.37;;;;;;;;;;5103490;28;20538;-57
2023/09/20 12:38:44;;;;;;;1.90;1.38;;;;;;;;;;5107564;28;20051;-57
2023/09/20 12:41:11;;;;;;;3.25;1.40;;;;;;;;;;5104490;28;20059;-56
2023/09/20 12:43:37;;;;;;;2.22;1.33;;;;;;;;;;5102394;28;20406;-56
2023/09/20 12:46:04;;;;;;;2.63;1.30;;;;;;;;;;5085711;28;20058;-57
2023/09/20 12:48:32;;;;;;;5.40;1.50;;;;;;;;;;5103750;28;20102;-57
2023/09/20 12:50:58;;;;;;;5.18;1.38;;;;;;;;;;5104419;28;20558;-57
2023/09/20 12:53:24;;;;;;;3.83;1.60;;;;;;;;;;5099305;28;20083;-57
2023/09/20 12:55:50;;;;;;;3.15;1.20;;;;;;;;;;5084809;28;20039;-57
2023/09/20 12:58:17;;;;;;;1.88;1.35;;;;;;;;;;5102054;28;20048;-57
2023/09/20 13:00:43;;;;;;;2.60;1.27;;;;;;;;;;5103893;28;20031;-58
2023/09/20 13:03:09;;;;;;;2.35;1.52;;;;;;;;;;5099663;28;20055;-58
2023/09/20 13:05:36;;;;;;;3.08;1.30;;;;;;;;;;5094269;28;20050;-57
2023/09/20 13:08:04;;;;;;;2.58;1.52;;;;;;;;;;5083558;28;20051;-59
2023/09/20 13:10:32;;;;;;;2.90;1.33;;;;;;;;;;5103218;28;20031;-59
2023/09/20 13:13:02;;;;;;;1.55;1.15;;;;;;;;;;5100611;28;20040;-59
2023/09/20 13:15:28;;;;;;;2.95;1.45;;;;;;;;;;5100539;28;20052;-59
2023/09/20 13:17:57;;;;;;;2.92;1.40;;;;;;;;;;5104482;28;20043;-60
2023/09/20 13:20:24;;;;;;;2.38;1.45;;;;;;;;;;5103397;28;20035;-58
2023/09/20 13:22:56;;;;;;;2.47;1.23;;;;;;;;;;5102075;28;20043;-58
2023/09/20 13:25:22;;;;;;;4.15;1.23;;;;;;;;;;5102680;28;20442;-57
2023/09/20 13:27:49;;;;;;;3.25;1.10;;;;;;;;;;5102489;28;20024;-58
2023/09/20 13:30:17;;;;;;;2.58;1.27;;;;;;;;;;5100902;28;20043;-58
2023/09/20 13:32:46;;;;;;;1.17;1.05;;;;;;;;;;5101918;28;20028;-58
2023/09/20 13:35:15;;;;;;;2.28;1.30;;;;;;;;;;5105165;28;20526;-57
2023/09/20 13:37:45;;;;;;;1.33;1.00;;;;;;;;;;5107300;28;20038;-59
2023/09/20 13:40:21;;;;;;;2.00;1.30;;;;;;;;;;5104483;28;20031;-58
2023/09/20 13:42:47;;;;;;;2.25;1.48;;;;;;;;;;5101698;28;20371;-57
2023/09/20 13:45:16;;;;;;;5.68;1.40;;;;;;;;;;5101897;28;20066;-57
2023/09/20 13:47:42;;;;;;;3.50;1.10;;;;;;;;;;5098795;28;20035;-57
2023/09/20 13:50:12;;;;;;;3.30;1.38;;;;;;;;;;5079214;28;20051;-57
2023/09/20 13:52:42;;;;;;;2.75;1.20;;;;;;;;;;5099723;28;20499;-57
2023/09/20 13:55:11;;;;;;;2.50;1.35;;;;;;;;;;5101310;28;20043;-57
2023/09/20 13:57:37;;;;;;;3.95;1.35;;;;;;;;;;5102216;28;20050;-57
2023/09/20 14:00:11;;;;;;;2.20;1.10;;;;;;;;;;5102433;28;20051;-56
2023/09/20 14:02:40;;;;;;;1.80;1.10;;;;;;;;;;5101215;28;20051;-59
2023/09/20 14:05:14;;;;;;;2.65;1.00;;;;;;;;;;5098109;28;20525;-58
2023/09/20 14:07:42;;;;;;;3.10;1.40;;;;;;;;;;5101295;28;20050;-56
2023/09/20 14:10:09;;;;;;;3.25;1.25;;;;;;;;;;5082508;28;20047;-57
2023/09/20 14:12:37;;;;;;;3.50;1.15;;;;;;;;;;5104150;28;20114;-57
2023/09/20 14:15:10;;;;;;;1.90;1.17;;;;;;;;;;5104004;28;20036;-58
2023/09/20 14:17:37;;;;;;;6.60;1.73;;;;;;;;;;5102843;28;20523;-59
2023/09/20 14:20:09;;;;;;;2.05;1.10;;;;;;;;;;5087123;28;20101;-59
2023/09/20 14:22:39;;;;;;;1.98;1.05;;;;;;;;;;5100746;28;20115;-59
2023/09/20 14:25:11;;;;;;;2.63;1.25;;;;;;;;;;5101191;28;20043;-59
2023/09/20 14:27:41;;;;;;;1.67;1.20;;;;;;;;;;5101305;28;20594;-59
2023/09/20 14:30:10;;;;;;;2.22;1.15;;;;;;;;;;5086022;28;20044;-59
2023/09/20 14:32:39;;;;;;;3.30;1.15;;;;;;;;;;5102574;28;20043;-60
2023/09/20 14:35:07;;;;;;;2.58;1.45;;;;;;;;;;5103327;28;20055;-59
2023/09/20 14:37:35;;;;;;;1.85;1.13;;;;;;;;;;5085715;28;20039;-59
2023/09/20 14:40:03;;;;;;;2.63;1.10;;;;;;;;;;5102287;28;20036;-59
2023/09/20 14:42:29;;;;;;;2.35;1.10;;;;;;;;;;5103190;28;20027;-58
2023/09/20 14:44:55;;;;;;;4.40;1.30;;;;;;;;;;5084971;28;20043;-59
2023/09/20 14:47:21;;;;;;;2.17;1.38;;;;;;;;;;5101082;28;20040;-59
2023/09/20 14:49:47;;;;;;;2.88;1.20;;;;;;;;;;5101481;28;20044;-58
2023/09/20 14:52:14;;;;;;;3.28;1.40;;;;;;;;;;5084355;28;20046;-58
2023/09/20 14:54:40;;;;;;;2.08;1.13;;;;;;;;;;5101373;28;20198;-58
2023/09/20 14:57:06;;;;;;;3.38;1.38;;;;;;;;;;5101155;28;20047;-58
2023/09/20 14:59:32;;;;;;;2.83;1.40;;;;;;;;;;5105271;28;20047;-58
2023/09/20 15:01:58;;;;;;;3.55;1.50;;;;;;;;;;5105164;28;20052;-59
2023/09/20 15:04:24;;;;;;;2.45;1.30;;;;;;;;;;5101342;28;20051;-58
2023/09/20 15:06:51;;;;;;;2.78;1.30;;;;;;;;;;5105467;28;20035;-58
2023/09/20 15:09:17;;;;;;;1.73;1.30;;;;;;;;;;5106994;28;20482;-58
2023/09/20 15:11:44;;;;;;;5.30;1.50;;;;;;;;;;5079242;28;20043;-58
2023/09/20 15:14:13;;;;;;;2.55;1.40;;;;;;;;;;5102936;28;20055;-58
2023/09/20 15:16:40;;;;;;;2.90;1.50;;;;;;;;;;5084226;28;20043;-58
2023/09/20 15:19:08;;;;;;;4.35;1.70;;;;;;;;;;5104159;28;20036;-58
2023/09/20 15:21:34;;;;;;;3.63;1.40;;;;;;;;;;5102601;28;20036;-58
2023/09/20 15:24:00;;;;;;;5.32;1.60;;;;;;;;;;5085247;28;20668;-57
2023/09/20 15:26:29;;;;;;;2.33;1.40;;;;;;;;;;5107306;28;20033;-58
2023/09/20 15:28:55;;;;;;;2.00;1.20;;;;;;;;;;5087993;28;20043;-58
2023/09/20 15:31:21;;;;;;;1.67;1.20;;;;;;;;;;5105383;28;20051;-57
2023/09/20 15:33:47;;;;;;;3.35;1.52;;;;;;;;;;5107702;28;20094;-58